Time;durP1;ratioP1;P1;durP2;ratioP2;P2;SDS_P1;SDS_P2;PMS_P1;PMS_P2;Temp;Humidity;BMP_temperature;BMP_pressure;BME280_temperature;BME280_humidity;BME280_pressure;Samples;Min_cycle;Max_cycle;Signal;HPM_P1;HPM_P2
2022/10/23 00:01:31;;;;;;;6.10;1.52;;;;;;;;;;5094711;28;20063;-81
2022/10/23 00:04:03;;;;;;;5.95;1.40;;;;;;;;;;5092788;28;20045;-81
2022/10/23 00:06:32;;;;;;;6.75;1.98;;;;;;;;;;5094075;28;20049;-80
2022/10/23 00:08:59;;;;;;;9.32;1.80;;;;;;;;;;5092704;28;20091;-82
2022/10/23 00:11:29;;;;;;;6.75;1.60;;;;;;;;;;5094475;28;20055;-82
2022/10/23 00:13:59;;;;;;;4.53;1.50;;;;;;;;;;5093797;28;20052;-82
2022/10/23 00:16:26;;;;;;;3.65;1.40;;;;;;;;;;5093712;28;20049;-82
2022/10/23 00:21:52;;;;;;;6.75;1.30;;;;;;;;;;5039242;28;20065;-83
2022/10/23 00:24:18;;;;;;;4.47;1.95;;;;;;;;;;5021297;28;20057;-83
2022/10/23 00:26:44;;;;;;;10.82;2.20;;;;;;;;;;5021823;28;20379;-84
2022/10/23 00:29:11;;;;;;;9.77;2.30;;;;;;;;;;5043891;28;20045;-83
2022/10/23 00:31:37;;;;;;;6.53;2.20;;;;;;;;;;5057508;28;20063;-84
2022/10/23 00:34:06;;;;;;;6.03;2.72;;;;;;;;;;5059245;28;20308;-82
2022/10/23 00:36:33;;;;;;;6.40;3.08;;;;;;;;;;5061682;28;20064;-82
2022/10/23 00:39:00;;;;;;;10.27;3.40;;;;;;;;;;5058936;28;20045;-82
2022/10/23 00:41:28;;;;;;;5.45;3.30;;;;;;;;;;5060543;28;20529;-82
2022/10/23 00:43:56;;;;;;;12.63;4.00;;;;;;;;;;5061909;28;20105;-81
2022/10/23 00:46:22;;;;;;;11.13;3.58;;;;;;;;;;5061748;28;20645;-82
2022/10/23 00:48:49;;;;;;;8.48;3.67;;;;;;;;;;5042863;28;20060;-82
2022/10/23 00:51:15;;;;;;;11.82;3.60;;;;;;;;;;5070204;28;20072;-83
2022/10/23 00:53:42;;;;;;;9.07;3.65;;;;;;;;;;5044565;28;20116;-82
2022/10/23 00:56:09;;;;;;;8.90;4.07;;;;;;;;;;5062494;28;20056;-84
2022/10/23 00:58:35;;;;;;;7.35;4.03;;;;;;;;;;5064769;28;20049;-85
2022/10/23 01:01:14;;;;;;;6.53;3.90;;;;;;;;;;5073945;28;20048;-81
2022/10/23 01:03:40;;;;;;;7.50;3.50;;;;;;;;;;5076085;28;20033;-82
2022/10/23 01:06:09;;;;;;;4.22;3.10;;;;;;;;;;5071357;28;20052;-83
2022/10/23 01:08:45;;;;;;;6.82;3.70;;;;;;;;;;5044875;28;20053;-82
2022/10/23 01:11:19;;;;;;;7.53;3.53;;;;;;;;;;5062149;28;20410;-83
2022/10/23 01:13:48;;;;;;;9.43;4.07;;;;;;;;;;5044710;28;20061;-82
2022/10/23 01:16:25;;;;;;;9.23;3.88;;;;;;;;;;5062031;28;20110;-82
2022/10/23 01:18:57;;;;;;;5.10;3.28;;;;;;;;;;5042896;28;20045;-83
2022/10/23 01:21:29;;;;;;;7.35;2.97;;;;;;;;;;5064017;28;20141;-83
2022/10/23 01:24:04;;;;;;;7.05;3.47;;;;;;;;;;5045520;28;20156;-83
2022/10/23 01:26:34;;;;;;;10.70;3.70;;;;;;;;;;5045199;28;20052;-83
2022/10/23 01:29:07;;;;;;;10.20;3.58;;;;;;;;;;5062877;28;20053;-83
2022/10/23 01:31:36;;;;;;;8.15;3.58;;;;;;;;;;5052323;28;20041;-84
2022/10/23 01:34:06;;;;;;;12.90;3.80;;;;;;;;;;5061645;28;20571;-84
2022/10/23 01:36:33;;;;;;;9.18;3.85;;;;;;;;;;5060523;28;20041;-82
2022/10/23 01:39:07;;;;;;;6.57;3.55;;;;;;;;;;5067428;28;20033;-81
2022/10/23 01:41:45;;;;;;;5.07;3.67;;;;;;;;;;5058664;28;20092;-82
2022/10/23 01:44:21;;;;;;;10.77;3.65;;;;;;;;;;5076131;28;20101;-83
2022/10/23 01:46:49;;;;;;;9.48;3.53;;;;;;;;;;5058203;28;20037;-82
2022/10/23 01:49:16;;;;;;;4.43;3.38;;;;;;;;;;5056352;28;20101;-82
2022/10/23 01:51:44;;;;;;;7.65;3.78;;;;;;;;;;5055361;28;20072;-81
2022/10/23 01:54:12;;;;;;;5.45;3.55;;;;;;;;;;5038238;28;20041;-82
2022/10/23 01:56:41;;;;;;;8.13;3.70;;;;;;;;;;5029030;28;20132;-84
2022/10/23 01:59:09;;;;;;;5.68;3.60;;;;;;;;;;5041735;28;20056;-83
2022/10/23 02:01:38;;;;;;;8.57;4.00;;;;;;;;;;5043313;28;20053;-83
2022/10/23 02:04:07;;;;;;;10.10;4.00;;;;;;;;;;5044391;28;20038;-83
2022/10/23 02:06:33;;;;;;;7.85;4.20;;;;;;;;;;5041413;28;20053;-84
2022/10/23 02:09:00;;;;;;;12.77;4.00;;;;;;;;;;5046659;28;20097;-83
2022/10/23 02:11:26;;;;;;;5.90;3.55;;;;;;;;;;5055635;28;20076;-82
2022/10/23 02:13:59;;;;;;;7.95;3.67;;;;;;;;;;5066850;28;20044;-82
2022/10/23 02:16:31;;;;;;;8.18;3.88;;;;;;;;;;5065372;28;20049;-81
2022/10/23 02:19:16;;;;;;;4.60;3.25;;;;;;;;;;5063432;28;20393;-81
2022/10/23 02:21:43;;;;;;;6.17;3.30;;;;;;;;;;5064195;28;20048;-83
2022/10/23 02:24:14;;;;;;;10.35;3.50;;;;;;;;;;5065371;28;20049;-84
2022/10/23 02:26:51;;;;;;;8.25;3.90;;;;;;;;;;5046239;28;20112;-83
2022/10/23 02:29:20;;;;;;;5.10;3.70;;;;;;;;;;5044821;28;20049;-85
2022/10/23 02:31:46;;;;;;;5.50;3.63;;;;;;;;;;5062878;28;20064;-83
2022/10/23 02:34:13;;;;;;;6.00;4.25;;;;;;;;;;5063718;28;20055;-82
2022/10/23 02:36:39;;;;;;;5.75;4.15;;;;;;;;;;5067777;28;20053;-81
2022/10/23 02:39:06;;;;;;;9.02;3.60;;;;;;;;;;5039115;28;20052;-83
2022/10/23 02:41:50;;;;;;;6.40;4.22;;;;;;;;;;5056292;28;20528;-84
2022/10/23 02:44:36;;;;;;;7.10;4.18;;;;;;;;;;5056464;28;20060;-82
2022/10/23 02:47:20;;;;;;;5.38;3.72;;;;;;;;;;5065888;28;20045;-82
2022/10/23 02:49:46;;;;;;;7.50;4.03;;;;;;;;;;5061574;28;20109;-82
2022/10/23 02:52:17;;;;;;;8.27;3.58;;;;;;;;;;5051189;28;20053;-82
2022/10/23 02:55:02;;;;;;;13.52;3.67;;;;;;;;;;5063112;28;20049;-83
2022/10/23 02:57:40;;;;;;;10.02;4.00;;;;;;;;;;5062482;28;20041;-83
2022/10/23 03:00:10;;;;;;;5.43;3.20;;;;;;;;;;5043211;28;20044;-82
2022/10/23 03:02:36;;;;;;;5.43;2.85;;;;;;;;;;5045108;28;20045;-82
2022/10/23 03:05:04;;;;;;;6.38;3.63;;;;;;;;;;5044365;28;20045;-82
2022/10/23 03:07:31;;;;;;;8.88;4.55;;;;;;;;;;5061518;28;20061;-82
2022/10/23 03:09:57;;;;;;;8.50;4.05;;;;;;;;;;5060043;28;20059;-81
2022/10/23 03:12:24;;;;;;;8.57;4.15;;;;;;;;;;5029677;28;20048;-81
2022/10/23 03:14:50;;;;;;;9.43;4.47;;;;;;;;;;5040046;28;20136;-83
2022/10/23 03:17:17;;;;;;;7.25;4.40;;;;;;;;;;5039711;28;20414;-82
2022/10/23 03:19:43;;;;;;;10.80;4.60;;;;;;;;;;5037387;28;20045;-82
2022/10/23 03:22:09;;;;;;;11.00;4.78;;;;;;;;;;5021798;28;20053;-82
2022/10/23 03:24:36;;;;;;;8.05;4.75;;;;;;;;;;5041764;28;20053;-82
2022/10/23 03:27:02;;;;;;;9.63;4.15;;;;;;;;;;5027845;28;20060;-84
2022/10/23 03:29:28;;;;;;;6.65;3.85;;;;;;;;;;5037153;28;20064;-80
2022/10/23 03:31:55;;;;;;;9.27;4.63;;;;;;;;;;5031623;28;20067;-82
2022/10/23 03:34:21;;;;;;;7.53;4.18;;;;;;;;;;5059513;28;20284;-84
2022/10/23 03:36:48;;;;;;;11.98;4.00;;;;;;;;;;5059901;28;20041;-82
2022/10/23 03:39:15;;;;;;;9.82;4.28;;;;;;;;;;5042116;28;20045;-84
2022/10/23 03:41:41;;;;;;;10.32;4.40;;;;;;;;;;5041218;28;20055;-82
2022/10/23 03:44:07;;;;;;;7.25;4.20;;;;;;;;;;5058444;28;20425;-82
2022/10/23 03:46:34;;;;;;;10.70;4.05;;;;;;;;;;5058271;28;20055;-82
2022/10/23 03:49:00;;;;;;;8.55;3.97;;;;;;;;;;5057240;28;20417;-81
2022/10/23 03:51:27;;;;;;;11.98;4.18;;;;;;;;;;5057154;28;20076;-83
2022/10/23 03:53:53;;;;;;;7.10;4.00;;;;;;;;;;5038593;28;20045;-82
2022/10/23 03:56:19;;;;;;;7.97;4.00;;;;;;;;;;5061741;28;20048;-82
2022/10/23 03:58:46;;;;;;;13.25;4.80;;;;;;;;;;5040017;28;20053;-81
2022/10/23 04:01:13;;;;;;;11.43;4.72;;;;;;;;;;5064351;28;20041;-81
2022/10/23 04:03:39;;;;;;;10.85;4.65;;;;;;;;;;5045310;28;20049;-85
2022/10/23 04:06:06;;;;;;;13.05;4.70;;;;;;;;;;5054796;28;20076;-84
2022/10/23 04:08:32;;;;;;;5.78;3.85;;;;;;;;;;5053443;28;20053;-85
2022/10/23 04:10:58;;;;;;;10.20;4.55;;;;;;;;;;5064603;28;20493;-83
2022/10/23 04:13:25;;;;;;;9.65;4.22;;;;;;;;;;5021429;28;20392;-81
2022/10/23 04:15:51;;;;;;;8.02;3.90;;;;;;;;;;5047062;28;20048;-81
2022/10/23 04:18:18;;;;;;;6.22;3.78;;;;;;;;;;5058652;28;20047;-83
2022/10/23 04:20:48;;;;;;;7.78;4.00;;;;;;;;;;5037189;28;20046;-81
2022/10/23 04:23:15;;;;;;;4.97;3.55;;;;;;;;;;5049392;28;20049;-82
2022/10/23 04:25:41;;;;;;;9.63;3.85;;;;;;;;;;5057789;28;20553;-82
2022/10/23 04:28:08;;;;;;;8.38;4.07;;;;;;;;;;5043335;28;20071;-82
2022/10/23 04:30:34;;;;;;;8.20;4.22;;;;;;;;;;5059229;28;20051;-84
2022/10/23 04:33:01;;;;;;;11.93;3.85;;;;;;;;;;5064575;28;20045;-82
2022/10/23 04:35:27;;;;;;;6.05;3.85;;;;;;;;;;5048316;28;20667;-82
2022/10/23 04:37:53;;;;;;;8.10;4.00;;;;;;;;;;5046425;28;20052;-82
2022/10/23 04:40:20;;;;;;;8.82;4.20;;;;;;;;;;5063719;28;20430;-83
2022/10/23 04:42:46;;;;;;;7.53;3.45;;;;;;;;;;5065952;28;20500;-84
2022/10/23 04:45:13;;;;;;;10.38;3.80;;;;;;;;;;5064934;28;20117;-83
2022/10/23 04:47:39;;;;;;;11.48;3.90;;;;;;;;;;5064965;28;20048;-84
2022/10/23 04:50:05;;;;;;;14.10;4.00;;;;;;;;;;5068043;28;20043;-82
2022/10/23 04:52:33;;;;;;;9.40;4.03;;;;;;;;;;5052310;28;20558;-82
2022/10/23 04:54:59;;;;;;;7.28;4.32;;;;;;;;;;5053289;28;20117;-85
2022/10/23 04:57:26;;;;;;;11.27;3.97;;;;;;;;;;5028521;28;20046;-82
2022/10/23 04:59:52;;;;;;;6.18;3.70;;;;;;;;;;5025731;28;20476;-88
2022/10/23 05:02:19;;;;;;;6.78;3.80;;;;;;;;;;5058688;28;20056;-87
2022/10/23 05:04:45;;;;;;;8.48;4.15;;;;;;;;;;5040970;28;20090;-86
2022/10/23 05:07:16;;;;;;;7.65;3.45;;;;;;;;;;5060143;28;20053;-84
2022/10/23 05:09:42;;;;;;;5.90;3.60;;;;;;;;;;5051480;28;20049;-84
2022/10/23 05:12:09;;;;;;;7.10;4.18;;;;;;;;;;5042012;28;20059;-85
2022/10/23 05:14:36;;;;;;;6.70;3.92;;;;;;;;;;5040658;28;20053;-85
2022/10/23 05:17:06;;;;;;;5.78;3.70;;;;;;;;;;5041584;28;20411;-84
2022/10/23 05:20:10;;;;;;;10.63;3.95;;;;;;;;;;5036918;28;20049;-88
2022/10/23 05:22:58;;;;;;;26.27;8.93;;;;;;;;;;5040376;28;20151;-88
2022/10/23 05:25:29;;;;;;;32.22;12.55;;;;;;;;;;5046629;28;20061;-87
2022/10/23 05:27:55;;;;;;;57.97;20.58;;;;;;;;;;5066544;28;20056;-88
2022/10/23 05:30:24;;;;;;;58.90;23.55;;;;;;;;;;5066141;28;20045;-87
2022/10/23 05:32:50;;;;;;;44.67;19.17;;;;;;;;;;5058140;28;20109;-85
2022/10/23 05:35:19;;;;;;;48.58;20.08;;;;;;;;;;5055704;28;20117;-86
2022/10/23 05:37:47;;;;;;;48.78;20.58;;;;;;;;;;5054450;28;20052;-87
2022/10/23 05:40:13;;;;;;;47.63;20.58;;;;;;;;;;5067294;28;20052;-85
2022/10/23 05:42:40;;;;;;;51.47;20.00;;;;;;;;;;5073091;28;20061;-84
2022/10/23 05:45:07;;;;;;;38.00;17.13;;;;;;;;;;5055375;28;20049;-85
2022/10/23 05:47:33;;;;;;;32.08;13.13;;;;;;;;;;5073884;28;20231;-85
2022/10/23 05:50:00;;;;;;;28.77;12.00;;;;;;;;;;5073820;28;20049;-84
2022/10/23 05:52:26;;;;;;;25.70;11.50;;;;;;;;;;5070574;28;20393;-84
2022/10/23 05:54:53;;;;;;;33.75;13.05;;;;;;;;;;5070954;28;20108;-82
2022/10/23 05:57:19;;;;;;;22.80;11.32;;;;;;;;;;5068296;28;20563;-84
2022/10/23 05:59:48;;;;;;;29.15;12.18;;;;;;;;;;5064868;28;20063;-85
2022/10/23 06:02:14;;;;;;;19.13;8.68;;;;;;;;;;5072318;28;20044;-84
2022/10/23 06:04:41;;;;;;;20.40;8.55;;;;;;;;;;5052623;28;20096;-84
2022/10/23 06:07:07;;;;;;;24.08;9.50;;;;;;;;;;5040768;28;20231;-87
2022/10/23 06:09:34;;;;;;;17.88;8.40;;;;;;;;;;5047084;28;20084;-82
2022/10/23 06:12:01;;;;;;;12.73;6.70;;;;;;;;;;5039452;28;20049;-83
2022/10/23 06:14:30;;;;;;;10.57;4.97;;;;;;;;;;5052906;28;20560;-86
2022/10/23 06:16:57;;;;;;;9.68;4.95;;;;;;;;;;5047473;28;20033;-83
2022/10/23 06:19:23;;;;;;;9.82;4.15;;;;;;;;;;5048829;28;20045;-83
2022/10/23 06:21:50;;;;;;;7.72;3.38;;;;;;;;;;5046688;28;20053;-83
2022/10/23 06:24:16;;;;;;;6.88;3.03;;;;;;;;;;5045637;28;20045;-84
2022/10/23 06:26:43;;;;;;;7.47;2.72;;;;;;;;;;5064230;28;20059;-85
2022/10/23 06:29:10;;;;;;;6.80;2.55;;;;;;;;;;5063415;28;20072;-83
2022/10/23 06:31:36;;;;;;;7.72;3.30;;;;;;;;;;5058816;28;20048;-86
2022/10/23 06:34:02;;;;;;;7.00;3.17;;;;;;;;;;5070196;28;20071;-84
2022/10/23 06:36:29;;;;;;;8.25;3.05;;;;;;;;;;5068973;28;20053;-83
2022/10/23 06:38:55;;;;;;;8.48;3.28;;;;;;;;;;5058138;28;20053;-84
2022/10/23 06:41:22;;;;;;;6.82;3.58;;;;;;;;;;5070682;28;20049;-85
2022/10/23 06:43:49;;;;;;;12.13;3.63;;;;;;;;;;5070391;28;20055;-83
2022/10/23 06:46:16;;;;;;;9.75;3.72;;;;;;;;;;5070176;28;20059;-82
2022/10/23 06:48:42;;;;;;;10.82;3.88;;;;;;;;;;5070114;28;20045;-84
2022/10/23 06:51:10;;;;;;;11.63;3.78;;;;;;;;;;5069596;28;20048;-83
2022/10/23 06:53:37;;;;;;;10.98;3.95;;;;;;;;;;5069358;28;20045;-83
2022/10/23 06:56:04;;;;;;;6.13;3.40;;;;;;;;;;5071003;28;20052;-82
2022/10/23 06:58:31;;;;;;;8.98;3.47;;;;;;;;;;5069981;28;20068;-82
2022/10/23 07:01:01;;;;;;;10.95;3.90;;;;;;;;;;5068999;28;20104;-84
2022/10/23 07:03:28;;;;;;;12.77;4.10;;;;;;;;;;5051541;28;20286;-84
2022/10/23 07:05:54;;;;;;;12.13;3.85;;;;;;;;;;5067543;28;20045;-84
2022/10/23 07:08:20;;;;;;;8.85;3.60;;;;;;;;;;5066236;28;20076;-84
2022/10/23 07:10:47;;;;;;;9.48;3.40;;;;;;;;;;5064858;28;20508;-86
2022/10/23 07:13:14;;;;;;;9.23;4.20;;;;;;;;;;5044209;28;20073;-86
2022/10/23 07:15:40;;;;;;;9.98;3.78;;;;;;;;;;5044654;28;20167;-85
2022/10/23 07:18:13;;;;;;;10.73;4.10;;;;;;;;;;5043587;28;20056;-84
2022/10/23 07:20:42;;;;;;;9.27;3.17;;;;;;;;;;5026696;28;20055;-84
2022/10/23 07:23:10;;;;;;;9.20;3.42;;;;;;;;;;5045762;28;20045;-85
2022/10/23 07:25:36;;;;;;;6.40;3.65;;;;;;;;;;5048103;28;20049;-83
2022/10/23 07:28:03;;;;;;;6.60;3.03;;;;;;;;;;5051113;28;20059;-83
2022/10/23 07:30:30;;;;;;;4.43;2.80;;;;;;;;;;5047251;28;20045;-86
2022/10/23 07:32:56;;;;;;;11.38;3.08;;;;;;;;;;5042145;28;20053;-86
2022/10/23 07:35:23;;;;;;;7.00;2.90;;;;;;;;;;5040232;28;20053;-85
2022/10/23 07:37:49;;;;;;;5.05;2.38;;;;;;;;;;5041305;28;20057;-85
2022/10/23 07:40:17;;;;;;;8.60;2.88;;;;;;;;;;5045544;28;20133;-84
2022/10/23 07:42:44;;;;;;;7.07;2.33;;;;;;;;;;5028058;28;20065;-86
2022/10/23 07:45:11;;;;;;;5.95;2.78;;;;;;;;;;5045896;28;20053;-85
2022/10/23 07:47:37;;;;;;;7.90;2.70;;;;;;;;;;5027606;28;20087;-82
2022/10/23 07:50:04;;;;;;;7.40;2.70;;;;;;;;;;5046093;28;20041;-81
2022/10/23 07:52:30;;;;;;;5.93;2.85;;;;;;;;;;5045745;28;20150;-84
2022/10/23 07:55:01;;;;;;;6.60;2.80;;;;;;;;;;5046663;28;20049;-83
2022/10/23 07:57:27;;;;;;;4.63;2.60;;;;;;;;;;5045908;28;20080;-83
2022/10/23 07:59:53;;;;;;;8.63;2.50;;;;;;;;;;5046467;28;20041;-82
2022/10/23 08:02:20;;;;;;;8.43;2.53;;;;;;;;;;5046059;28;20041;-83
2022/10/23 08:04:49;;;;;;;6.80;2.85;;;;;;;;;;5046217;28;20050;-84
2022/10/23 08:07:16;;;;;;;5.60;2.80;;;;;;;;;;5026472;28;20053;-85
2022/10/23 08:09:42;;;;;;;8.32;2.55;;;;;;;;;;5048005;28;20053;-84
2022/10/23 08:12:08;;;;;;;9.95;2.70;;;;;;;;;;5056545;28;20075;-87
2022/10/23 08:14:35;;;;;;;9.25;2.47;;;;;;;;;;5064810;28;20417;-87
2022/10/23 08:17:03;;;;;;;5.05;2.40;;;;;;;;;;5054217;28;20119;-81
2022/10/23 08:19:30;;;;;;;6.82;2.30;;;;;;;;;;5064666;28;20049;-84
2022/10/23 08:21:56;;;;;;;7.00;2.20;;;;;;;;;;5061853;28;20418;-86
2022/10/23 08:24:23;;;;;;;7.28;2.22;;;;;;;;;;5058940;28;20042;-86
2022/10/23 08:26:49;;;;;;;5.20;2.33;;;;;;;;;;5057661;28;20124;-86
2022/10/23 08:29:16;;;;;;;3.97;2.00;;;;;;;;;;5065347;28;20060;-84
2022/10/23 08:31:42;;;;;;;4.85;2.13;;;;;;;;;;5048126;28;20238;-86
2022/10/23 08:34:08;;;;;;;8.52;2.22;;;;;;;;;;5065199;28;20053;-85
2022/10/23 08:36:35;;;;;;;4.85;2.05;;;;;;;;;;5065685;28;20451;-83
2022/10/23 08:39:02;;;;;;;4.68;1.85;;;;;;;;;;5065707;28;20117;-85
2022/10/23 08:41:32;;;;;;;8.65;2.30;;;;;;;;;;5047541;28;20339;-87
2022/10/23 08:44:18;;;;;;;6.10;2.20;;;;;;;;;;5046243;28;20053;-83
2022/10/23 08:46:48;;;;;;;4.10;2.03;;;;;;;;;;5065080;28;20127;-85
2022/10/23 08:49:20;;;;;;;6.35;2.10;;;;;;;;;;5064828;28;20045;-83
2022/10/23 08:51:49;;;;;;;6.03;1.95;;;;;;;;;;5069509;28;20048;-84
2022/10/23 08:54:21;;;;;;;9.25;2.40;;;;;;;;;;5069872;28;20051;-83
2022/10/23 08:56:49;;;;;;;7.00;2.03;;;;;;;;;;5067441;28;20167;-85
2022/10/23 08:59:21;;;;;;;5.40;2.30;;;;;;;;;;5065834;28;20045;-84
2022/10/23 09:02:03;;;;;;;5.60;2.20;;;;;;;;;;5064367;28;20045;-83
2022/10/23 09:04:30;;;;;;;5.30;1.98;;;;;;;;;;5066096;28;20049;-84
2022/10/23 09:07:02;;;;;;;2.17;1.55;;;;;;;;;;5070795;28;20185;-87
2022/10/23 09:09:28;;;;;;;4.20;1.60;;;;;;;;;;5075716;28;20061;-83
2022/10/23 09:12:15;;;;;;;3.65;1.55;;;;;;;;;;5061398;28;20045;-87
2022/10/23 09:14:54;;;;;;;4.15;2.00;;;;;;;;;;5043380;28;20046;-84
2022/10/23 09:17:20;;;;;;;5.22;1.90;;;;;;;;;;5041342;28;20067;-84
2022/10/23 09:19:49;;;;;;;6.65;1.83;;;;;;;;;;5041667;28;20108;-85
2022/10/23 09:22:15;;;;;;;4.78;1.50;;;;;;;;;;5041401;28;20053;-85
2022/10/23 09:24:42;;;;;;;9.40;2.45;;;;;;;;;;5022865;28;20050;-87
2022/10/23 09:27:13;;;;;;;4.13;2.35;;;;;;;;;;5042476;28;20538;-85
2022/10/23 09:29:45;;;;;;;3.15;1.75;;;;;;;;;;5041257;28;20148;-87
2022/10/23 09:32:12;;;;;;;4.70;1.80;;;;;;;;;;5042334;28;20057;-87
2022/10/23 09:34:48;;;;;;;5.22;1.73;;;;;;;;;;5042346;28;20554;-87
2022/10/23 09:37:25;;;;;;;4.85;1.70;;;;;;;;;;5041447;28;20049;-87
2022/10/23 09:40:10;;;;;;;4.80;1.50;;;;;;;;;;5041803;28;20049;-86
2022/10/23 09:42:37;;;;;;;4.60;1.70;;;;;;;;;;5024088;28;20049;-84
2022/10/23 09:45:19;;;;;;;4.18;1.95;;;;;;;;;;5050864;28;20100;-83
2022/10/23 09:47:46;;;;;;;5.70;1.90;;;;;;;;;;5055739;28;20068;-83
2022/10/23 09:50:18;;;;;;;3.50;1.15;;;;;;;;;;5038085;28;20063;-83
2022/10/23 09:52:44;;;;;;;4.30;1.33;;;;;;;;;;5055934;28;20085;-83
2022/10/23 09:55:24;;;;;;;4.50;1.10;;;;;;;;;;5055949;28;20041;-82
2022/10/23 09:57:51;;;;;;;3.75;1.02;;;;;;;;;;5055587;28;20057;-82
2022/10/23 10:00:20;;;;;;;3.90;1.27;;;;;;;;;;5055721;28;20057;-84
2022/10/23 10:03:13;;;;;;;1.90;1.05;;;;;;;;;;5031265;28;20046;-85
2022/10/23 10:05:40;;;;;;;5.65;1.30;;;;;;;;;;5041808;28;20101;-85
2022/10/23 10:08:09;;;;;;;5.75;1.40;;;;;;;;;;5042798;28;20053;-87
2022/10/23 10:10:43;;;;;;;4.78;1.40;;;;;;;;;;5042971;28;20101;-87
2022/10/23 10:13:25;;;;;;;2.53;1.38;;;;;;;;;;5044892;28;20052;-87
2022/10/23 10:15:53;;;;;;;2.55;1.10;;;;;;;;;;5063902;28;20044;-86
2022/10/23 10:18:23;;;;;;;3.25;1.17;;;;;;;;;;5061519;28;20121;-85
2022/10/23 10:21:11;;;;;;;3.88;1.40;;;;;;;;;;5061269;28;20057;-86
2022/10/23 10:23:52;;;;;;;4.43;1.15;;;;;;;;;;5046228;28;20067;-85
2022/10/23 10:26:26;;;;;;;4.60;1.13;;;;;;;;;;5045787;28;20130;-87
2022/10/23 10:29:02;;;;;;;2.78;0.90;;;;;;;;;;5063891;28;20128;-87
2022/10/23 10:31:28;;;;;;;2.10;1.10;;;;;;;;;;5064845;28;20049;-87
2022/10/23 10:34:04;;;;;;;3.92;1.27;;;;;;;;;;5047858;28;20049;-88
2022/10/23 10:36:39;;;;;;;4.03;0.80;;;;;;;;;;5064565;28;20056;-84
2022/10/23 10:39:12;;;;;;;1.75;0.80;;;;;;;;;;5064083;28;20107;-86
2022/10/23 10:41:43;;;;;;;3.13;1.17;;;;;;;;;;5065218;28;20052;-86
2022/10/23 10:44:18;;;;;;;1.33;0.70;;;;;;;;;;5064992;28;20139;-85
2022/10/23 10:46:50;;;;;;;2.97;1.00;;;;;;;;;;5063488;28;20059;-82
2022/10/23 10:49:35;;;;;;;2.63;0.90;;;;;;;;;;5065349;28;20076;-83
2022/10/23 10:52:28;;;;;;;2.45;0.68;;;;;;;;;;5047283;28;20108;-86
2022/10/23 10:55:12;;;;;;;2.40;0.60;;;;;;;;;;5042684;28;20053;-83
2022/10/23 10:57:44;;;;;;;1.38;0.60;;;;;;;;;;5064766;28;20107;-84
2022/10/23 11:00:19;;;;;;;2.13;0.50;;;;;;;;;;5066113;28;20055;-82
2022/10/23 11:02:47;;;;;;;2.00;0.50;;;;;;;;;;5052828;28;20105;-83
2022/10/23 11:05:13;;;;;;;2.42;0.60;;;;;;;;;;5047532;28;20199;-85
2022/10/23 11:07:41;;;;;;;2.42;0.60;;;;;;;;;;5040862;28;20053;-84
2022/10/23 11:10:16;;;;;;;2.25;0.70;;;;;;;;;;5059245;28;20065;-87
2022/10/23 11:12:43;;;;;;;1.27;0.40;;;;;;;;;;5059326;28;20045;-86
2022/10/23 11:15:14;;;;;;;1.33;0.50;;;;;;;;;;5060184;28;20045;-84
2022/10/23 11:17:43;;;;;;;5.15;0.63;;;;;;;;;;5061307;28;20059;-85
2022/10/23 11:20:49;;;;;;;3.00;0.70;;;;;;;;;;5043857;28;20160;-82
2022/10/23 11:23:31;;;;;;;1.95;0.60;;;;;;;;;;4943854;29;20138;-85
2022/10/23 11:26:12;;;;;;;1.75;0.52;;;;;;;;;;4946982;29;20055;-84
2022/10/23 11:28:57;;;;;;;3.25;0.70;;;;;;;;;;5019039;28;20053;-82
2022/10/23 11:31:25;;;;;;;3.95;0.60;;;;;;;;;;5065438;28;20055;-86
2022/10/23 11:33:55;;;;;;;0.95;0.38;;;;;;;;;;5041506;28;20425;-86
2022/10/23 11:36:37;;;;;;;1.65;0.52;;;;;;;;;;5059632;28;20037;-87
2022/10/23 11:39:14;;;;;;;3.30;0.80;;;;;;;;;;5060543;28;20049;-87
2022/10/23 11:41:47;;;;;;;4.65;0.90;;;;;;;;;;5061088;28;20055;-85
2022/10/23 11:44:32;;;;;;;2.20;0.70;;;;;;;;;;5046536;28;20051;-86
2022/10/23 11:47:04;;;;;;;1.20;0.52;;;;;;;;;;5064153;28;20056;-87
2022/10/23 11:49:30;;;;;;;2.33;0.70;;;;;;;;;;5064008;28;20071;-85
2022/10/23 11:52:00;;;;;;;1.70;0.55;;;;;;;;;;5064638;28;20053;-86
2022/10/23 11:54:26;;;;;;;2.08;0.57;;;;;;;;;;5065437;28;20045;-86
2022/10/23 11:56:56;;;;;;;2.22;0.60;;;;;;;;;;5063291;28;20053;-86
2022/10/23 11:59:30;;;;;;;1.50;0.70;;;;;;;;;;5044835;28;20055;-87
2022/10/23 12:01:58;;;;;;;1.95;0.35;;;;;;;;;;5064964;28;20044;-85
2022/10/23 12:04:27;;;;;;;3.63;1.33;;;;;;;;;;5067470;28;20055;-84
2022/10/23 12:07:01;;;;;;;2.45;0.70;;;;;;;;;;5065900;28;20041;-87
2022/10/23 12:09:27;;;;;;;2.00;0.85;;;;;;;;;;5064094;28;20047;-84
2022/10/23 12:12:01;;;;;;;2.10;0.47;;;;;;;;;;5047770;28;20041;-86
2022/10/23 12:14:29;;;;;;;1.75;0.57;;;;;;;;;;5046462;28;20049;-84
2022/10/23 12:16:55;;;;;;;2.85;0.47;;;;;;;;;;5065607;28;20053;-84
2022/10/23 12:19:23;;;;;;;2.15;0.60;;;;;;;;;;5065964;28;20110;-84
2022/10/23 12:21:51;;;;;;;1.30;0.57;;;;;;;;;;5068814;28;20053;-85
2022/10/23 12:24:22;;;;;;;1.20;0.50;;;;;;;;;;5068529;28;20045;-86
2022/10/23 12:27:00;;;;;;;1.17;0.40;;;;;;;;;;5061256;28;20049;-84
2022/10/23 12:29:29;;;;;;;2.17;0.70;;;;;;;;;;5061596;28;20122;-84
2022/10/23 12:31:56;;;;;;;3.05;0.57;;;;;;;;;;5042632;28;20053;-87
2022/10/23 12:34:31;;;;;;;1.55;0.50;;;;;;;;;;5060704;28;20049;-87
2022/10/23 12:36:58;;;;;;;1.05;0.40;;;;;;;;;;5062522;28;20045;-86
2022/10/23 12:39:38;;;;;;;1.35;0.50;;;;;;;;;;5063312;28;20045;-86
2022/10/23 12:42:09;;;;;;;2.03;0.40;;;;;;;;;;5063578;28;20060;-85
2022/10/23 12:44:36;;;;;;;1.67;0.50;;;;;;;;;;5061699;28;20136;-84
2022/10/23 12:47:02;;;;;;;2.15;0.50;;;;;;;;;;5053177;28;20055;-82
2022/10/23 12:49:32;;;;;;;2.42;0.60;;;;;;;;;;5043316;28;20059;-88
2022/10/23 12:52:03;;;;;;;1.67;0.38;;;;;;;;;;5060677;28;20060;-87
2022/10/23 12:54:31;;;;;;;5.95;0.82;;;;;;;;;;5048368;28;20049;-85
2022/10/23 12:56:57;;;;;;;2.65;1.27;;;;;;;;;;5043109;28;20049;-85
2022/10/23 12:59:32;;;;;;;3.00;1.10;;;;;;;;;;5051207;28;20045;-83
2022/10/23 13:01:58;;;;;;;2.83;0.80;;;;;;;;;;5055351;28;20056;-82
2022/10/23 13:04:28;;;;;;;3.92;0.95;;;;;;;;;;5072072;28;20045;-82
2022/10/23 13:06:55;;;;;;;3.17;1.00;;;;;;;;;;5047087;28;20471;-83
2022/10/23 13:09:27;;;;;;;2.40;1.00;;;;;;;;;;5044025;28;20055;-88
2022/10/23 13:11:54;;;;;;;4.72;0.80;;;;;;;;;;5062164;28;20049;-87
2022/10/23 13:14:30;;;;;;;2.25;1.00;;;;;;;;;;5063480;28;20045;-84
2022/10/23 13:17:04;;;;;;;3.88;1.02;;;;;;;;;;5062946;28;20053;-86
2022/10/23 13:19:31;;;;;;;2.70;1.00;;;;;;;;;;5039359;28;148270;-81
2022/10/23 13:21:58;;;;;;;5.95;1.10;;;;;;;;;;5046636;28;20390;-85
2022/10/23 13:24:26;;;;;;;4.65;0.90;;;;;;;;;;5044795;28;20235;-85
2022/10/23 13:26:53;;;;;;;4.18;1.20;;;;;;;;;;5061483;28;20509;-86
2022/10/23 13:29:23;;;;;;;2.25;1.20;;;;;;;;;;5062701;28;20067;-84
2022/10/23 13:31:49;;;;;;;2.45;1.00;;;;;;;;;;5064693;28;20083;-86
2022/10/23 13:34:23;;;;;;;2.40;0.88;;;;;;;;;;5047866;28;20063;-80
2022/10/23 13:36:57;;;;;;;2.15;1.08;;;;;;;;;;5035434;28;20053;-82
2022/10/23 13:39:25;;;;;;;3.45;1.10;;;;;;;;;;5068928;28;20096;-83
2022/10/23 13:41:52;;;;;;;2.63;1.20;;;;;;;;;;5063233;28;20075;-84
2022/10/23 13:44:20;;;;;;;3.72;1.02;;;;;;;;;;5062261;28;20045;-83
2022/10/23 13:46:47;;;;;;;6.50;1.25;;;;;;;;;;5066734;28;20417;-81
2022/10/23 13:49:14;;;;;;;2.38;1.17;;;;;;;;;;5049827;28;20049;-85
2022/10/23 13:51:46;;;;;;;3.20;1.20;;;;;;;;;;5066697;28;20573;-83
2022/10/23 13:54:14;;;;;;;4.60;1.20;;;;;;;;;;5049155;28;20041;-79
2022/10/23 13:56:40;;;;;;;2.40;1.10;;;;;;;;;;5076128;28;20063;-80
2022/10/23 13:59:07;;;;;;;3.45;1.50;;;;;;;;;;5076057;28;20032;-81
2022/10/23 14:01:34;;;;;;;4.53;1.60;;;;;;;;;;5076118;28;20055;-81
2022/10/23 14:04:03;;;;;;;5.55;1.70;;;;;;;;;;5057536;28;20108;-82
2022/10/23 14:06:30;;;;;;;3.40;1.50;;;;;;;;;;5075432;28;20037;-81
2022/10/23 14:08:56;;;;;;;5.32;1.30;;;;;;;;;;5073428;28;20113;-82
2022/10/23 14:11:23;;;;;;;4.22;1.42;;;;;;;;;;5072152;28;20059;-83
2022/10/23 14:13:51;;;;;;;7.82;1.75;;;;;;;;;;5063307;28;20076;-85
2022/10/23 14:16:18;;;;;;;5.50;1.70;;;;;;;;;;5068832;28;20466;-83
2022/10/23 14:18:45;;;;;;;7.80;1.63;;;;;;;;;;5048423;28;20117;-84
2022/10/23 14:21:12;;;;;;;2.85;1.58;;;;;;;;;;5052332;28;20116;-81
2022/10/23 14:23:39;;;;;;;5.07;1.75;;;;;;;;;;5067947;28;20080;-81
2022/10/23 14:26:09;;;;;;;4.70;1.77;;;;;;;;;;5067752;28;20108;-83
2022/10/23 14:28:36;;;;;;;4.07;2.10;;;;;;;;;;5051229;28;20055;-81
2022/10/23 14:31:03;;;;;;;6.50;2.35;;;;;;;;;;5070341;28;20048;-82
2022/10/23 14:33:30;;;;;;;4.85;2.60;;;;;;;;;;5060720;28;20037;-82
2022/10/23 14:35:56;;;;;;;4.13;2.25;;;;;;;;;;5068654;28;20055;-82
2022/10/23 14:38:23;;;;;;;5.85;2.38;;;;;;;;;;5051168;28;20053;-84
2022/10/23 14:40:49;;;;;;;5.82;2.20;;;;;;;;;;5069039;28;20057;-81
2022/10/23 14:43:15;;;;;;;5.18;2.20;;;;;;;;;;5068556;28;20049;-80
2022/10/23 14:45:42;;;;;;;5.90;2.15;;;;;;;;;;5067769;28;20061;-83
2022/10/23 14:48:08;;;;;;;6.75;2.67;;;;;;;;;;5067058;28;20092;-83
2022/10/23 14:50:36;;;;;;;3.90;1.90;;;;;;;;;;5062594;28;20084;-85
2022/10/23 14:53:02;;;;;;;4.45;1.95;;;;;;;;;;5060618;28;20047;-86
2022/10/23 14:55:29;;;;;;;5.97;2.05;;;;;;;;;;5065508;28;20057;-82
2022/10/23 14:57:55;;;;;;;2.95;1.65;;;;;;;;;;5070459;28;20096;-84